Time;durP1;ratioP1;P1;durP2;ratioP2;P2;SDS_P1;SDS_P2;PMS_P1;PMS_P2;Temp;Humidity;BMP_temperature;BMP_pressure;BME280_temperature;BME280_humidity;BME280_pressure;Samples;Min_cycle;Max_cycle;Signal;HPM_P1;HPM_P2
2022/11/12 00:02:10;;;;;;;23.98;13.85;;;;;;;3.20;100.00;102947.28;5047544;28;20100;-69
2022/11/12 00:04:36;;;;;;;25.40;15.43;;;;;;;3.19;100.00;102949.81;5044685;28;20021;-69
2022/11/12 00:07:01;;;;;;;25.45;15.40;;;;;;;3.23;100.00;102957.06;5047294;28;20029;-69
2022/11/12 00:09:26;;;;;;;24.27;13.82;;;;;;;3.17;100.00;102961.88;5045500;28;20036;-69
2022/11/12 00:11:52;;;;;;;23.45;13.40;;;;;;;3.21;100.00;102959.56;5045879;28;20029;-68
2022/11/12 00:14:17;;;;;;;26.17;16.25;;;;;;;3.16;100.00;102962.66;5046707;28;20460;-69
2022/11/12 00:16:42;;;;;;;25.73;16.30;;;;;;;3.23;100.00;102967.50;5044404;28;20465;-65
2022/11/12 00:19:07;;;;;;;26.58;16.45;;;;;;;3.19;100.00;102971.63;5047597;28;20025;-66
2022/11/12 00:21:33;;;;;;;26.05;16.13;;;;;;;3.19;100.00;102962.88;5043932;28;20519;-66
2022/11/12 00:23:58;;;;;;;26.52;15.73;;;;;;;3.11;100.00;102968.47;5046405;28;20033;-65
2022/11/12 00:26:24;;;;;;;27.23;17.58;;;;;;;3.11;100.00;102968.47;5044294;28;20032;-66
2022/11/12 00:28:49;;;;;;;28.52;18.52;;;;;;;3.10;100.00;102973.59;5044894;28;20022;-66
2022/11/12 00:31:14;;;;;;;28.67;18.58;;;;;;;3.08;100.00;102975.22;5046805;28;20032;-66
2022/11/12 00:33:42;;;;;;;26.88;16.98;;;;;;;3.08;100.00;102976.13;5043933;28;20027;-66
2022/11/12 00:36:08;;;;;;;28.75;18.83;;;;;;;2.95;100.00;102974.34;5040065;28;20078;-66
2022/11/12 00:38:34;;;;;;;27.02;17.40;;;;;;;3.00;100.00;102972.09;5046830;28;20104;-66
2022/11/12 00:40:59;;;;;;;27.10;17.55;;;;;;;2.97;100.00;102979.69;5043702;28;20117;-66
2022/11/12 00:43:25;;;;;;;29.17;18.55;;;;;;;2.95;100.00;102970.84;5045368;28;20022;-66
2022/11/12 00:45:50;;;;;;;28.40;19.08;;;;;;;2.99;100.00;102972.88;5045679;28;20375;-66
2022/11/12 00:48:15;;;;;;;29.00;19.90;;;;;;;2.99;100.00;102970.25;5044036;28;20033;-66
2022/11/12 00:50:40;;;;;;;29.83;20.30;;;;;;;3.00;100.00;102960.69;5046724;28;20031;-66
2022/11/12 00:53:06;;;;;;;29.33;20.77;;;;;;;3.05;100.00;102965.44;5043489;28;20496;-66
2022/11/12 00:55:31;;;;;;;29.27;19.27;;;;;;;2.99;100.00;102959.81;5045796;28;20043;-68
2022/11/12 00:57:58;;;;;;;27.92;18.75;;;;;;;2.95;100.00;102970.84;5044875;28;20032;-68
2022/11/12 01:00:23;;;;;;;28.42;19.38;;;;;;;2.90;100.00;102965.31;5045050;28;20473;-68
2022/11/12 01:02:48;;;;;;;29.20;20.15;;;;;;;2.92;100.00;102962.78;5045620;28;20040;-68
2022/11/12 01:05:14;;;;;;;29.00;19.73;;;;;;;2.94;100.00;102958.56;5043711;28;20387;-68
2022/11/12 01:07:40;;;;;;;32.78;23.77;;;;;;;2.88;100.00;102966.00;5046793;28;20103;-68
2022/11/12 01:10:06;;;;;;;31.50;22.63;;;;;;;2.93;100.00;102959.41;5042887;28;20384;-69
2022/11/12 01:12:31;;;;;;;30.35;21.25;;;;;;;2.87;100.00;102958.94;5045802;28;20037;-68
2022/11/12 01:14:57;;;;;;;32.00;21.20;;;;;;;2.82;100.00;102960.34;5043997;28;20540;-68
2022/11/12 01:17:22;;;;;;;31.13;21.48;;;;;;;2.78;100.00;102962.75;5044720;28;20032;-68
2022/11/12 01:19:48;;;;;;;29.80;21.65;;;;;;;2.77;100.00;102954.81;5045382;28;20028;-68
2022/11/12 01:22:14;;;;;;;32.38;23.48;;;;;;;2.74;100.00;102946.75;5043123;28;20512;-68
2022/11/12 01:24:39;;;;;;;33.88;25.10;;;;;;;2.77;100.00;102953.09;5046239;28;20032;-68
2022/11/12 01:27:05;;;;;;;31.08;22.27;;;;;;;2.67;100.00;102955.84;5042802;28;20033;-68
2022/11/12 01:29:30;;;;;;;31.50;22.95;;;;;;;2.71;100.00;102959.56;5045260;28;20032;-68
2022/11/12 01:31:56;;;;;;;32.20;24.27;;;;;;;2.67;100.00;102949.75;5044144;28;20032;-68
2022/11/12 01:34:21;;;;;;;32.03;23.15;;;;;;;2.59;100.00;102957.00;5044007;28;20033;-68
2022/11/12 01:36:46;;;;;;;32.33;23.75;;;;;;;2.59;100.00;102952.72;5045071;28;20052;-68
2022/11/12 01:39:12;;;;;;;32.83;23.27;;;;;;;2.53;100.00;102953.97;5042849;28;20079;-69
2022/11/12 01:41:39;;;;;;;33.15;23.48;;;;;;;2.53;100.00;102954.88;5045717;28;20021;-69
2022/11/12 01:44:19;;;;;;;31.10;22.33;;;;;;;2.54;100.00;102958.41;5042450;28;20038;-69
2022/11/12 01:47:17;;;;;;;31.58;23.77;;;;;;;2.46;100.00;102955.22;5039803;28;20061;-69
2022/11/12 01:49:55;;;;;;;31.83;23.77;;;;;;;2.50;100.00;102944.22;5037998;28;20037;-69
2022/11/12 01:52:30;;;;;;;33.45;25.60;;;;;;;2.43;100.00;102945.50;5043701;28;20490;-69
2022/11/12 01:55:05;;;;;;;34.47;23.42;;;;;;;2.41;100.00;102947.06;5043950;28;20029;-69
2022/11/12 01:57:40;;;;;;;32.35;24.35;;;;;;;2.44;100.00;102951.63;5043371;28;20025;-69
2022/11/12 02:00:09;;;;;;;32.38;23.73;;;;;;;2.37;100.00;102944.16;5045811;28;20062;-69
2022/11/12 02:02:36;;;;;;;34.47;25.23;;;;;;;2.32;100.00;102937.72;5042156;28;20547;-68
2022/11/12 02:05:05;;;;;;;36.47;27.20;;;;;;;2.32;100.00;102945.53;5044506;28;20119;-69
2022/11/12 02:07:32;;;;;;;38.05;27.92;;;;;;;2.33;100.00;102942.09;5042770;28;20028;-69
2022/11/12 02:10:00;;;;;;;38.13;28.65;;;;;;;2.18;100.00;102941.91;5044273;28;20025;-69
2022/11/12 02:15:11;;;;;;;36.10;27.80;;;;;;;2.18;100.00;102937.59;5038199;28;20040;-69
2022/11/12 02:17:36;;;;;;;31.65;24.85;;;;;;;2.16;100.00;102939.22;5045722;28;20025;-66
2022/11/12 02:20:01;;;;;;;34.10;25.40;;;;;;;2.22;100.00;102941.34;5042226;28;20088;-66
2022/11/12 02:22:27;;;;;;;34.72;25.95;;;;;;;2.21;100.00;102950.91;5043771;28;20450;-66
2022/11/12 02:24:52;;;;;;;34.40;25.45;;;;;;;2.26;100.00;102946.00;5043735;28;20020;-66
2022/11/12 02:27:18;;;;;;;33.40;24.08;;;;;;;2.22;100.00;102947.47;5042334;28;20028;-66
2022/11/12 02:29:46;;;;;;;33.35;25.55;;;;;;;2.20;100.00;102946.47;5044729;28;20025;-66
2022/11/12 02:32:14;;;;;;;32.30;24.77;;;;;;;2.17;100.00;102945.31;5041608;28;20025;-66
2022/11/12 02:34:40;;;;;;;33.50;24.70;;;;;;;2.16;100.00;102938.31;5037686;28;20033;-66
2022/11/12 02:37:06;;;;;;;34.28;25.88;;;;;;;2.15;100.00;102936.50;5043333;28;20031;-66
2022/11/12 02:39:32;;;;;;;32.60;24.45;;;;;;;2.11;100.00;102948.38;5042110;28;20037;-66
2022/11/12 02:41:58;;;;;;;32.58;24.50;;;;;;;2.10;100.00;102946.59;5043468;28;20021;-66
2022/11/12 02:44:23;;;;;;;30.98;24.23;;;;;;;2.11;100.00;102939.66;5043093;28;20053;-66
2022/11/12 02:46:48;;;;;;;31.88;23.70;;;;;;;1.98;100.00;102944.00;5042125;28;20025;-66
2022/11/12 02:49:13;;;;;;;30.40;22.80;;;;;;;1.97;100.00;102928.25;5044476;28;20071;-66
2022/11/12 02:51:39;;;;;;;31.38;22.63;;;;;;;1.96;100.00;102929.94;5041379;28;20025;-65
2022/11/12 02:54:04;;;;;;;29.98;21.45;;;;;;;1.95;100.00;102938.53;5044185;28;20422;-66
2022/11/12 02:56:29;;;;;;;30.38;21.45;;;;;;;1.97;100.00;102928.25;5042029;28;20195;-66
2022/11/12 02:58:55;;;;;;;30.15;22.50;;;;;;;1.99;100.00;102927.53;5043003;28;20108;-66
2022/11/12 03:01:20;;;;;;;30.17;22.38;;;;;;;1.98;100.00;102919.59;5043345;28;20159;-66
2022/11/12 03:03:45;;;;;;;29.23;22.50;;;;;;;1.98;100.00;102911.78;5041073;28;20021;-66
2022/11/12 03:06:11;;;;;;;29.48;21.35;;;;;;;1.90;100.00;102924.28;5044664;28;20075;-66
2022/11/12 03:08:36;;;;;;;28.48;20.65;;;;;;;1.85;100.00;102917.78;5041301;28;20022;-66
2022/11/12 03:11:08;;;;;;;27.67;20.10;;;;;;;1.82;100.00;102920.19;5043728;28;20025;-66
2022/11/12 03:13:34;;;;;;;27.80;20.45;;;;;;;1.78;100.00;102923.34;5041442;28;20420;-66
2022/11/12 03:16:00;;;;;;;27.88;21.23;;;;;;;1.79;100.00;102922.56;5043114;28;20029;-66
2022/11/12 03:18:25;;;;;;;29.05;22.10;;;;;;;1.83;100.00;102932.44;5042285;28;20036;-66
2022/11/12 03:20:51;;;;;;;30.08;24.00;;;;;;;1.85;100.00;102936.06;5041928;28;20501;-66
2022/11/12 03:23:16;;;;;;;30.42;23.45;;;;;;;1.86;100.00;102938.78;5043539;28;20040;-66
2022/11/12 03:25:41;;;;;;;29.92;22.70;;;;;;;1.83;100.00;102932.44;5041020;28;20447;-66
2022/11/12 03:28:09;;;;;;;30.73;23.25;;;;;;;1.84;100.00;102944.69;5044217;28;20052;-69
2022/11/12 03:30:38;;;;;;;28.80;21.88;;;;;;;1.78;100.00;102939.94;5040987;28;20031;-68
2022/11/12 03:33:04;;;;;;;27.92;20.80;;;;;;;1.73;100.00;102946.50;5043380;28;20062;-69
2022/11/12 03:35:30;;;;;;;30.50;23.75;;;;;;;1.72;100.00;102939.50;5041849;28;20032;-68
2022/11/12 03:37:56;;;;;;;32.13;25.42;;;;;;;1.73;100.00;102938.66;5041147;28;20029;-68
2022/11/12 03:40:21;;;;;;;30.15;23.02;;;;;;;1.64;100.00;102949.31;5042789;28;20025;-68
2022/11/12 03:42:48;;;;;;;30.13;22.90;;;;;;;1.54;100.00;102944.22;5041626;28;20022;-67
2022/11/12 03:45:16;;;;;;;28.45;21.10;;;;;;;1.51;100.00;102944.91;5043989;28;20384;-68
2022/11/12 03:47:47;;;;;;;28.38;21.17;;;;;;;1.50;100.00;102947.38;5040416;28;20105;-67
2022/11/12 03:50:13;;;;;;;28.05;21.20;;;;;;;1.50;100.00;102947.38;5037255;28;20091;-68
2022/11/12 03:52:43;;;;;;;29.05;21.20;;;;;;;1.51;100.00;102939.69;5036558;28;20017;-68
2022/11/12 03:55:08;;;;;;;28.65;21.38;;;;;;;1.56;100.00;102947.88;5036487;28;20060;-69
2022/11/12 03:57:34;;;;;;;28.05;20.77;;;;;;;1.56;100.00;102940.06;5043463;28;20480;-69
2022/11/12 03:59:59;;;;;;;29.13;21.55;;;;;;;1.52;100.00;102951.03;5041612;28;20043;-68
2022/11/12 04:02:25;;;;;;;28.92;20.27;;;;;;;1.59;100.00;102952.38;5042172;28;20065;-69
2022/11/12 04:10:22;;;;;;;27.73;19.70;;;;;;;1.61;100.00;102936.06;5039787;28;20040;-69
2022/11/12 04:15:31;;;;;;;28.30;19.70;;;;;;;1.62;100.00;102924.84;5043380;28;20044;-69
2022/11/12 04:23:24;;;;;;;27.52;19.63;;;;;;;1.50;100.00;102921.31;5043498;28;20099;-68
2022/11/12 04:28:33;;;;;;;29.38;19.63;;;;;;;1.47;100.00;102922.03;5047078;28;20063;-67
2022/11/12 04:30:58;;;;;;;28.85;20.17;;;;;;;1.52;100.00;102911.94;5045146;28;20036;-67
2022/11/12 04:33:24;;;;;;;27.60;18.75;;;;;;;1.50;100.00;102910.88;5045027;28;20029;-66
2022/11/12 04:35:49;;;;;;;27.52;18.95;;;;;;;1.52;100.00;102909.31;5046445;28;20027;-68
2022/11/12 04:38:14;;;;;;;28.17;19.45;;;;;;;1.48;100.00;102912.50;5043629;28;20082;-67
2022/11/12 04:46:08;;;;;;;28.35;18.88;;;;;;;1.43;100.00;102926.88;5043753;28;20045;-67
2022/11/12 04:48:33;;;;;;;28.88;20.00;;;;;;;1.44;100.00;102919.16;5046097;28;20032;-68
2022/11/12 04:51:02;;;;;;;27.73;19.17;;;;;;;1.46;100.00;102924.53;5044580;28;20039;-68
2022/11/12 04:53:29;;;;;;;29.23;19.25;;;;;;;1.52;100.00;102914.53;5045604;28;20131;-68
2022/11/12 04:55:56;;;;;;;29.20;19.08;;;;;;;1.50;100.00;102922.25;5045110;28;20037;-68
2022/11/12 04:58:22;;;;;;;28.13;19.60;;;;;;;1.44;100.00;102900.03;5044418;28;20057;-68
2022/11/12 05:00:49;;;;;;;28.83;18.42;;;;;;;1.42;100.00;102906.84;5046158;28;20060;-66
2022/11/12 05:03:14;;;;;;;29.50;19.58;;;;;;;1.37;100.00;102901.28;5041775;28;20073;-67
2022/11/12 05:05:39;;;;;;;30.40;21.05;;;;;;;1.45;100.00;102896.63;5046477;28;20124;-68
2022/11/12 05:08:05;;;;;;;30.30;21.45;;;;;;;1.43;100.00;102895.59;5042656;28;20037;-68
2022/11/12 05:10:30;;;;;;;30.58;21.13;;;;;;;1.41;100.00;102897.19;5045259;28;20029;-68
2022/11/12 05:12:56;;;;;;;30.55;21.75;;;;;;;1.43;100.00;102888.69;5044936;28;20029;-68
2022/11/12 05:15:21;;;;;;;30.63;20.60;;;;;;;1.33;100.00;102894.91;5044084;28;20029;-70
2022/11/12 05:17:47;;;;;;;31.02;19.17;;;;;;;1.30;100.00;102897.28;5045818;28;20476;-68
2022/11/12 05:20:13;;;;;;;29.35;20.13;;;;;;;1.28;100.00;102897.97;5042509;28;20025;-67
2022/11/12 05:22:39;;;;;;;31.42;21.27;;;;;;;1.31;100.00;102893.91;5039254;28;20041;-68
2022/11/12 05:25:06;;;;;;;28.98;20.23;;;;;;;1.29;100.00;102895.47;5045464;28;20031;-67
2022/11/12 05:27:31;;;;;;;27.85;19.45;;;;;;;1.30;100.00;102893.78;5043475;28;20036;-68
2022/11/12 05:29:57;;;;;;;30.83;21.05;;;;;;;1.28;100.00;102874.50;5044616;28;20021;-69
2022/11/12 05:32:22;;;;;;;29.55;21.17;;;;;;;1.20;100.00;102887.88;5044872;28;20088;-68
2022/11/12 05:34:47;;;;;;;28.45;20.15;;;;;;;1.21;100.00;102892.31;5043170;28;20029;-68
2022/11/12 05:37:15;;;;;;;27.70;19.98;;;;;;;1.18;100.00;102876.44;5045929;28;20067;-67
2022/11/12 05:39:40;;;;;;;28.95;19.40;;;;;;;1.18;100.00;102870.31;5038691;28;20064;-68
2022/11/12 05:42:06;;;;;;;29.45;20.90;;;;;;;1.17;100.00;102886.75;5045700;28;20061;-66
2022/11/12 05:44:32;;;;;;;28.27;19.77;;;;;;;1.15;100.00;102886.63;5043429;28;20025;-66
2022/11/12 05:46:57;;;;;;;28.10;19.50;;;;;;;1.15;100.00;102885.72;5044154;28;20530;-66
2022/11/12 05:49:23;;;;;;;28.45;20.17;;;;;;;1.18;100.00;102891.16;5044910;28;20028;-66
2022/11/12 05:51:48;;;;;;;28.25;19.20;;;;;;;1.13;100.00;102883.00;5042983;28;20030;-66
2022/11/12 05:54:13;;;;;;;28.38;19.30;;;;;;;1.12;100.00;102889.03;5045648;28;20411;-66
2022/11/12 05:56:39;;;;;;;29.10;18.98;;;;;;;1.09;100.00;102880.94;5042635;28;20033;-66
2022/11/12 05:59:07;;;;;;;27.88;19.13;;;;;;;1.05;100.00;102889.34;5044932;28;20163;-66
2022/11/12 06:01:37;;;;;;;27.88;18.90;;;;;;;1.05;100.00;102884.13;5042837;28;20021;-66
2022/11/12 06:04:03;;;;;;;29.25;19.77;;;;;;;1.07;100.00;102887.75;5044953;28;20029;-66
2022/11/12 06:06:28;;;;;;;27.38;18.48;;;;;;;1.08;100.00;102888.63;5043378;28;20392;-66
2022/11/12 06:08:53;;;;;;;29.20;20.05;;;;;;;1.07;100.00;102882.53;5043021;28;20112;-66
2022/11/12 06:11:18;;;;;;;29.00;19.38;;;;;;;1.07;100.00;102886.84;5044999;28;20025;-66
2022/11/12 06:13:44;;;;;;;31.48;22.38;;;;;;;1.06;100.00;102885.03;5041719;28;20432;-66
2022/11/12 06:16:09;;;;;;;29.35;19.85;;;;;;;1.03;100.00;102889.22;5037753;28;20021;-66
2022/11/12 06:18:35;;;;;;;29.30;19.00;;;;;;;1.01;100.00;102888.19;5044819;28;20052;-66
2022/11/12 06:21:23;;;;;;;29.00;19.58;;;;;;;1.00;100.00;102891.56;5042617;28;20052;-66
2022/11/12 06:23:57;;;;;;;27.88;18.63;;;;;;;1.02;100.00;102900.44;5038359;28;20033;-66
2022/11/12 06:26:25;;;;;;;27.35;18.38;;;;;;;1.04;100.00;102892.72;5044008;28;20025;-68
2022/11/12 06:28:51;;;;;;;27.15;18.95;;;;;;;1.03;100.00;102896.13;5042596;28;20021;-68
2022/11/12 06:31:17;;;;;;;27.67;19.15;;;;;;;1.09;100.00;102903.50;5044891;28;20021;-68
2022/11/12 06:33:44;;;;;;;27.48;18.55;;;;;;;1.02;100.00;102900.44;5041592;28;20354;-69
2022/11/12 06:36:11;;;;;;;27.55;18.55;;;;;;;0.99;100.00;102897.59;5044985;28;20017;-68
2022/11/12 06:38:38;;;;;;;27.60;19.40;;;;;;;1.02;100.00;102897.81;5041399;28;20091;-69
2022/11/12 06:41:06;;;;;;;28.83;19.73;;;;;;;1.03;100.00;102902.25;5043989;28;20033;-69
2022/11/12 06:43:32;;;;;;;29.42;20.42;;;;;;;1.00;100.00;102899.38;5042873;28;20027;-69
2022/11/12 06:46:03;;;;;;;30.13;20.58;;;;;;;0.97;100.00;102893.06;5043046;28;20026;-69
2022/11/12 06:48:28;;;;;;;29.45;20.10;;;;;;;0.98;100.00;102903.59;5042795;28;20457;-68
2022/11/12 06:50:54;;;;;;;28.10;19.15;;;;;;;0.99;100.00;102902.81;5042645;28;20029;-67
2022/11/12 06:53:19;;;;;;;28.15;18.55;;;;;;;0.92;100.00;102903.13;5044269;28;20120;-69
2022/11/12 06:55:45;;;;;;;26.52;18.13;;;;;;;0.94;100.00;102906.75;5041254;28;20038;-69
2022/11/12 06:58:10;;;;;;;29.50;18.60;;;;;;;0.94;100.00;102911.94;5044859;28;20013;-69
2022/11/12 07:00:35;;;;;;;27.70;17.95;;;;;;;0.94;100.00;102911.06;5040243;28;20025;-69
2022/11/12 07:03:05;;;;;;;27.10;18.02;;;;;;;0.97;100.00;102908.69;5042961;28;20104;-68
2022/11/12 07:05:31;;;;;;;28.20;18.92;;;;;;;1.02;100.00;102907.31;5042550;28;20025;-68
2022/11/12 07:07:56;;;;;;;26.63;18.13;;;;;;;1.10;100.00;102910.53;5042593;28;20357;-66
2022/11/12 07:10:21;;;;;;;28.67;19.42;;;;;;;1.13;100.00;102916.84;5043640;28;20017;-66
2022/11/12 07:12:47;;;;;;;30.08;20.17;;;;;;;1.20;100.00;102911.31;5041543;28;20475;-66
2022/11/12 07:15:13;;;;;;;31.98;20.10;;;;;;;1.23;100.00;102910.66;5044047;28;20072;-66
2022/11/12 07:17:38;;;;;;;29.85;19.95;;;;;;;1.28;100.00;102909.31;5040985;28;20090;-66
2022/11/12 07:20:04;;;;;;;28.75;19.38;;;;;;;1.28;100.00;102911.00;5043326;28;20026;-66
2022/11/12 07:22:32;;;;;;;27.80;19.25;;;;;;;1.32;100.00;102905.22;5042101;28;20492;-66
2022/11/12 07:24:57;;;;;;;29.88;20.85;;;;;;;1.32;100.00;102911.34;5042502;28;20030;-66
2022/11/12 07:27:22;;;;;;;30.17;21.73;;;;;;;1.41;100.00;102918.94;5043324;28;20032;-66
2022/11/12 07:29:48;;;;;;;30.30;20.77;;;;;;;1.38;100.00;102916.09;5041121;28;20075;-66
2022/11/12 07:32:13;;;;;;;30.63;21.33;;;;;;;1.49;100.00;102906.50;5043896;28;20036;-66
2022/11/12 07:34:38;;;;;;;29.40;20.52;;;;;;;1.51;100.00;102913.59;5040807;28;20064;-66
2022/11/12 07:37:04;;;;;;;28.85;19.30;;;;;;;1.54;100.00;102911.25;5043351;28;20029;-66
2022/11/12 07:39:29;;;;;;;28.83;19.48;;;;;;;1.56;100.00;102917.47;5041981;28;20029;-66
2022/11/12 07:41:54;;;;;;;29.58;19.98;;;;;;;1.66;100.00;102918.16;5042162;28;20078;-66
2022/11/12 07:44:19;;;;;;;29.02;19.85;;;;;;;1.71;100.00;102920.31;5043641;28;20491;-66
2022/11/12 07:46:45;;;;;;;29.92;20.25;;;;;;;1.86;100.00;102925.72;5040351;28;20022;-66
2022/11/12 07:49:10;;;;;;;29.20;20.60;;;;;;;1.91;100.00;102923.50;5043788;28;20025;-66
2022/11/12 07:51:35;;;;;;;29.52;20.92;;;;;;;2.05;100.00;102920.19;5043794;28;20101;-66
2022/11/12 07:54:01;;;;;;;31.85;21.70;;;;;;;2.25;100.00;102924.19;5046665;28;20485;-66
2022/11/12 07:56:27;;;;;;;30.45;21.70;;;;;;;2.44;100.00;102925.50;5046304;28;20087;-66
2022/11/12 07:58:52;;;;;;;32.20;23.05;;;;;;;2.60;100.00;102922.28;5045691;28;20021;-66
2022/11/12 08:01:40;;;;;;;28.95;20.40;;;;;;;2.76;100.00;102924.25;5047696;28;20473;-66
2022/11/12 08:04:09;;;;;;;30.30;20.38;;;;;;;2.95;100.00;102932.53;5047040;28;20510;-66
2022/11/12 08:06:35;;;;;;;31.15;20.50;;;;;;;3.21;100.00;102929.91;5045264;28;20051;-66
2022/11/12 08:09:03;;;;;;;29.40;18.92;;;;;;;3.39;100.00;102938.97;5046118;28;20036;-66
2022/11/12 08:11:29;;;;;;;28.50;18.15;;;;;;;3.59;100.00;102936.81;5045967;28;20033;-67
2022/11/12 08:13:54;;;;;;;28.63;18.20;;;;;;;3.78;100.00;102933.69;5045381;28;20029;-66
2022/11/12 08:16:19;;;;;;;27.83;17.17;;;;;;;3.95;100.00;102942.66;5046972;28;20029;-67
2022/11/12 08:18:45;;;;;;;28.13;17.55;;;;;;;4.13;100.00;102935.06;5044153;28;20022;-66
2022/11/12 08:21:13;;;;;;;27.77;18.00;;;;;;;4.34;100.00;102946.00;5039734;28;20048;-66
2022/11/12 08:23:39;;;;;;;28.77;18.35;;;;;;;4.48;100.00;102954.72;5047159;28;20025;-66
2022/11/12 08:26:07;;;;;;;26.88;17.70;;;;;;;4.65;100.00;102951.44;5044799;28;20468;-66
2022/11/12 08:28:34;;;;;;;27.05;17.40;;;;;;;4.85;100.00;102951.78;5046162;28;20022;-66
2022/11/12 08:31:09;;;;;;;26.88;17.23;;;;;;;5.06;100.00;102957.41;5045287;28;20033;-66
2022/11/12 08:33:34;;;;;;;27.27;16.70;;;;;;;5.27;100.00;102949.03;5046097;28;20041;-66
2022/11/12 08:36:08;;;;;;;26.30;15.48;;;;;;;5.62;100.00;102945.88;5045357;28;20029;-66
2022/11/12 08:38:34;;;;;;;26.13;15.18;;;;;;;5.86;100.00;102949.00;5046095;28;20053;-67
2022/11/12 08:41:05;;;;;;;25.98;15.13;;;;;;;6.23;100.00;102943.25;5045394;28;20021;-66
2022/11/12 08:43:30;;;;;;;24.27;13.60;;;;;;;6.63;100.00;102940.16;5045701;28;20037;-67
2022/11/12 08:46:00;;;;;;;24.80;14.13;;;;;;;6.92;100.00;102940.81;5045469;28;20388;-67
2022/11/12 08:48:26;;;;;;;23.05;13.40;;;;;;;7.01;100.00;102953.53;5044594;28;20021;-67
2022/11/12 08:50:52;;;;;;;23.95;13.05;;;;;;;6.95;100.00;102954.09;5046383;28;20021;-67
2022/11/12 08:53:17;;;;;;;24.40;13.25;;;;;;;6.99;100.00;102955.19;5043456;28;20033;-66
2022/11/12 08:55:42;;;;;;;24.00;13.73;;;;;;;7.06;100.00;102952.06;5046620;28;20154;-66
2022/11/12 08:58:09;;;;;;;24.98;14.32;;;;;;;7.14;100.00;102953.34;5044224;28;20030;-66
2022/11/12 09:00:38;;;;;;;24.65;13.60;;;;;;;7.37;100.00;102950.09;5045658;28;20034;-67
2022/11/12 09:03:06;;;;;;;24.15;13.23;;;;;;;7.64;100.00;102956.75;5043725;28;20083;-67
2022/11/12 09:05:34;;;;;;;24.25;13.60;;;;;;;7.73;100.00;102950.13;5045556;28;20071;-68
2022/11/12 09:08:05;;;;;;;23.38;13.52;;;;;;;7.91;100.00;102942.25;5044863;28;20025;-69
2022/11/12 09:10:30;;;;;;;24.20;13.50;;;;;;;8.12;100.00;102945.00;5045144;28;20051;-68
2022/11/12 09:12:56;;;;;;;24.83;13.00;;;;;;;8.52;100.00;102949.56;5041850;28;20543;-67
2022/11/12 09:15:23;;;;;;;23.05;12.63;;;;;;;8.68;100.00;102949.44;5043850;28;20029;-67
2022/11/12 09:17:54;;;;;;;25.10;12.77;;;;;;;8.82;100.00;102946.50;5044945;28;20029;-67
2022/11/12 09:20:19;;;;;;;23.98;12.70;;;;;;;9.03;100.00;102944.84;5044166;28;20383;-66
2022/11/12 09:22:45;;;;;;;24.02;12.88;;;;;;;9.22;100.00;102950.94;5042793;28;20041;-67
2022/11/12 09:25:10;;;;;;;23.58;13.35;;;;;;;9.24;100.00;102951.88;5045506;28;20472;-68
2022/11/12 09:27:35;;;;;;;24.38;12.75;;;;;;;9.21;100.00;102952.63;5042913;28;20021;-68
2022/11/12 09:30:01;;;;;;;24.52;12.95;;;;;;;9.41;100.00;102955.25;5045979;28;20036;-67
2022/11/12 09:32:26;;;;;;;23.33;12.48;;;;;;;9.86;100.00;102951.81;5042151;28;20065;-67
2022/11/12 09:34:51;;;;;;;23.38;12.95;;;;;;;10.15;100.00;102949.44;5044840;28;20029;-67
2022/11/12 09:37:16;;;;;;;23.20;12.82;;;;;;;10.12;100.00;102944.97;5044745;28;20017;-67
2022/11/12 09:39:42;;;;;;;23.35;12.45;;;;;;;10.12;100.00;102942.31;5043422;28;20026;-67
2022/11/12 09:42:14;;;;;;;24.10;12.52;;;;;;;10.34;100.00;102944.09;5045886;28;20468;-68
2022/11/12 09:44:43;;;;;;;24.42;12.75;;;;;;;10.63;100.00;102949.59;5043348;28;20025;-68
2022/11/12 09:47:31;;;;;;;22.25;11.93;;;;;;;10.92;100.00;102948.03;5046530;28;20033;-70
2022/11/12 09:50:20;;;;;;;24.58;12.73;;;;;;;11.11;100.00;102952.22;5043560;28;20029;-77
2022/11/12 09:52:49;;;;;;;22.65;11.45;;;;;;;11.37;100.00;102952.22;5043440;28;20031;-68
2022/11/12 09:55:22;;;;;;;23.27;11.85;;;;;;;11.63;100.00;102952.22;5045227;28;20035;-68
2022/11/12 09:57:48;;;;;;;22.58;11.90;;;;;;;11.73;100.00;102949.00;5044957;28;20024;-76
2022/11/12 10:00:18;;;;;;;22.92;11.20;;;;;;;11.79;100.00;102946.56;5047425;28;20067;-72
2022/11/12 10:03:11;;;;;;;22.63;11.60;;;;;;;12.21;100.00;102951.47;5047261;28;20064;-77
2022/11/12 10:05:47;;;;;;;22.50;11.30;;;;;;;12.99;100.00;102945.75;5041881;28;20033;-69
2022/11/12 10:08:33;;;;;;;23.08;11.25;;;;;;;13.62;100.00;102943.91;5046430;28;20029;-68
2022/11/12 10:11:17;;;;;;;23.17;11.32;;;;;;;13.92;100.00;102942.00;5037165;28;20083;-70
2022/11/12 10:14:18;;;;;;;21.95;10.80;;;;;;;14.02;100.00;102934.22;5039894;28;20476;-70
2022/11/12 10:17:06;;;;;;;22.13;10.50;;;;;;;14.33;100.00;102929.59;5044946;28;20102;-75
2022/11/12 10:19:44;;;;;;;22.45;10.57;;;;;;;14.45;100.00;102938.75;5044413;28;20021;-73
2022/11/12 10:22:39;;;;;;;21.77;10.13;;;;;;;14.45;100.00;102932.53;5041189;28;20048;-68
2022/11/12 10:25:13;;;;;;;23.05;10.70;;;;;;;14.62;100.00;102936.47;5042989;28;20036;-69
2022/11/12 10:27:40;;;;;;;22.40;10.07;;;;;;;14.98;100.00;102927.44;5043674;28;20036;-69
2022/11/12 10:30:13;;;;;;;22.10;10.50;;;;;;;15.88;100.00;102934.31;5047692;28;20102;-67
2022/11/12 10:32:43;;;;;;;21.58;10.13;;;;;;;16.44;100.00;102944.00;5046117;28;20388;-66
2022/11/12 10:35:10;;;;;;;22.08;9.70;;;;;;;16.78;100.00;102938.19;5045480;28;20133;-66
2022/11/12 10:37:40;;;;;;;21.73;9.90;;;;;;;17.29;100.00;102934.31;5044533;28;20545;-67
2022/11/12 10:40:38;;;;;;;22.63;9.90;;;;;;;18.09;100.00;102926.03;5042555;28;20025;-67
2022/11/12 10:43:16;;;;;;;20.35;9.85;;;;;;;18.59;100.00;102928.03;5043995;28;20053;-68
2022/11/12 10:45:46;;;;;;;21.65;9.50;;;;;;;19.15;100.00;102925.56;5044448;28;20472;-67
2022/11/12 10:48:31;;;;;;;21.70;9.00;;;;;;;19.79;69.69;102915.72;5044658;28;20032;-67
2022/11/12 10:50:57;;;;;;;20.42;8.88;;;;;;;20.41;54.08;102927.19;5042797;28;20123;-67
2022/11/12 10:53:37;;;;;;;21.35;9.13;;;;;;;20.27;58.47;102923.66;5043091;28;20052;-67
2022/11/12 10:56:14;;;;;;;21.23;9.27;;;;;;;20.49;50.70;102929.84;5044107;28;20033;-67
2022/11/12 10:58:39;;;;;;;19.65;8.70;;;;;;;21.11;45.42;102914.31;5037958;28;20108;-67
2022/11/12 11:01:14;;;;;;;20.20;8.95;;;;;;;21.66;46.56;102915.69;5043008;28;20536;-67
2022/11/12 11:03:51;;;;;;;20.77;9.35;;;;;;;22.18;44.52;102908.84;5037693;28;20036;-67
2022/11/12 11:06:22;;;;;;;20.40;9.02;;;;;;;22.50;41.74;102904.91;5043416;28;20025;-67
2022/11/12 11:08:50;;;;;;;21.20;9.07;;;;;;;22.92;41.25;102902.50;5040321;28;20469;-67
2022/11/12 11:11:15;;;;;;;20.83;9.13;;;;;;;23.14;39.49;102902.22;5043561;28;20025;-67
2022/11/12 11:13:41;;;;;;;19.07;8.63;;;;;;;23.47;39.66;102905.22;5041330;28;20484;-67
2022/11/12 11:16:11;;;;;;;20.42;9.40;;;;;;;23.55;39.61;102906.00;5044368;28;20270;-67
2022/11/12 11:18:40;;;;;;;20.33;8.82;;;;;;;23.89;38.85;102900.00;5036958;28;20116;-67
2022/11/12 11:21:30;;;;;;;20.58;9.20;;;;;;;24.42;41.61;102902.53;5036891;28;20121;-67
2022/11/12 11:24:15;;;;;;;19.83;9.30;;;;;;;25.04;40.09;102910.13;5041828;28;20029;-67
2022/11/12 11:27:22;;;;;;;20.55;8.80;;;;;;;26.04;40.23;102901.28;5037791;28;20040;-68
2022/11/12 11:29:56;;;;;;;19.80;8.75;;;;;;;25.99;36.94;102886.94;5039085;28;20120;-67
2022/11/12 11:32:34;;;;;;;19.98;8.90;;;;;;;26.40;37.03;102887.59;5042463;28;20443;-67
2022/11/12 11:35:19;;;;;;;20.02;9.07;;;;;;;26.81;36.69;102887.25;5042729;28;20037;-68
2022/11/12 11:38:06;;;;;;;20.83;8.60;;;;;;;27.26;35.14;102893.91;5033378;28;20033;-67
2022/11/12 11:40:45;;;;;;;20.52;9.07;;;;;;;27.22;33.67;102895.84;5036703;28;20044;-67